Time;durP1;ratioP1;P1;durP2;ratioP2;P2;SDS_P1;SDS_P2;PMS_P1;PMS_P2;Temp;Humidity;BMP_temperature;BMP_pressure;BME280_temperature;BME280_humidity;BME280_pressure;Samples;Min_cycle;Max_cycle;Signal;HPM_P1;HPM_P2
2021/07/03 07:25:11;;;;;;;10.32;6.70;;;22.70;99.90;;;;;;11943926;27;21126;-66
2021/07/03 07:30:58;;;;;;;10.18;6.32;;;23.10;99.90;;;;;;11973590;28;20054;-62
2021/07/03 07:36:44;;;;;;;10.63;5.97;;;23.50;99.90;;;;;;11970859;28;20096;-61
2021/07/03 07:42:33;;;;;;;12.13;5.90;;;24.10;99.90;;;;;;11972250;28;20472;-62
2021/07/03 07:48:20;;;;;;;8.55;6.05;;;24.50;99.90;;;;;;11972603;28;20072;-62
2021/07/03 07:54:06;;;;;;;10.20;6.47;;;24.50;99.90;;;;;;11970584;28;20521;-61
2021/07/03 07:59:55;;;;;;;8.57;5.38;;;24.30;99.90;;;;;;11970550;28;20823;-61
2021/07/03 08:05:43;;;;;;;9.10;6.40;;;24.30;99.90;;;;;;11972216;28;20053;-62
2021/07/03 08:11:30;;;;;;;11.73;6.45;;;24.10;99.90;;;;;;11912522;28;20045;-63
2021/07/03 08:17:18;;;;;;;12.20;6.65;;;23.80;99.90;;;;;;11941917;28;20057;-62
2021/07/03 08:23:05;;;;;;;8.98;6.43;;;23.70;99.90;;;;;;11968510;28;20045;-62
2021/07/03 08:28:52;;;;;;;9.68;6.32;;;23.80;99.90;;;;;;11971695;28;20053;-54
2021/07/03 08:54:39;;;;;;;9.05;7.03;;;22.00;99.90;;;;;;11912189;28;20947;-56
2021/07/03 09:00:31;;;;;;;8.98;7.60;;;22.20;99.90;;;;;;11905998;28;20038;-55
2021/07/03 09:06:18;;;;;;;13.13;8.00;;;22.70;99.90;;;;;;11891802;28;20061;-55
2021/07/03 09:12:07;;;;;;;10.10;7.75;;;23.00;99.90;;;;;;11903059;28;20045;-56
2021/07/03 09:17:55;;;;;;;10.77;6.95;;;23.30;99.90;;;;;;11894850;28;20825;-55
2021/07/03 09:23:42;;;;;;;8.93;7.10;;;23.40;99.90;;;;;;11887987;28;20077;-57
2021/07/03 09:29:31;;;;;;;12.13;7.60;;;23.80;99.90;;;;;;11903244;28;20490;-57
2021/07/03 09:35:18;;;;;;;11.52;7.75;;;23.90;99.90;;;;;;11901339;28;20050;-56
2021/07/03 09:41:10;;;;;;;12.93;7.85;;;24.10;99.90;;;;;;11892808;28;20053;-57
2021/07/03 09:46:58;;;;;;;15.68;7.22;;;24.10;99.90;;;;;;11885194;28;20049;-57
2021/07/03 09:52:45;;;;;;;11.40;6.85;;;24.10;99.90;;;;;;11906564;28;20074;-55
2021/07/03 09:58:34;;;;;;;10.73;6.05;;;24.20;99.90;;;;;;11892312;28;20049;-57
2021/07/03 10:04:23;;;;;;;29.73;11.38;;;24.30;99.90;;;;;;11869559;28;20054;-56
2021/07/03 10:10:14;;;;;;;8.45;6.28;;;24.50;99.90;;;;;;11868753;28;20057;-57
2021/07/03 10:16:05;;;;;;;8.93;5.50;;;24.80;99.90;;;;;;11865265;28;20042;-57
2021/07/03 10:21:53;;;;;;;7.28;4.85;;;24.80;99.90;;;;;;11855644;28;20473;-57
2021/07/03 10:27:52;;;;;;;6.88;4.80;;;25.00;99.90;;;;;;11854818;28;20051;-55
2021/07/03 10:33:45;;;;;;;6.72;4.90;;;25.10;99.90;;;;;;11828981;28;20082;-57
2021/07/03 10:39:34;;;;;;;;;;;24.60;99.90;;;;;;11851000;28;20054;-56
2021/07/03 10:45:23;;;;;;;8.05;5.40;;;24.60;99.90;;;;;;11811675;28;19930;-57
2021/07/03 10:51:13;;;;;;;6.38;4.45;;;24.70;99.90;;;;;;11851192;28;20096;-57
2021/07/03 10:57:04;;;;;;;4.85;4.35;;;24.80;99.50;;;;;;11850806;28;20072;-55
2021/07/03 11:02:51;;;;;;;5.13;4.35;;;25.00;99.90;;;;;;11847357;28;20057;-56
2021/07/03 11:08:39;;;;;;;4.60;3.75;;;25.00;98.60;;;;;;11853368;28;20046;-55
2021/07/03 11:14:28;;;;;;;3.58;3.28;;;25.00;96.20;;;;;;11841998;28;20046;-58
2021/07/03 11:20:25;;;;;;;4.63;3.80;;;25.00;94.60;;;;;;11832977;28;21952;-57
2021/07/03 11:26:13;;;;;;;5.25;3.80;;;25.10;94.00;;;;;;11840464;28;20046;-55
2021/07/03 11:32:07;;;;;;;4.15;3.20;;;25.40;92.00;;;;;;11840393;28;20054;-58
2021/07/03 11:37:53;;;;;;;;;;;25.30;85.10;;;;;;11846286;28;20062;-55
2021/07/03 11:43:41;;;;;;;4.57;3.22;;;25.70;87.50;;;;;;11836540;28;19928;-56
2021/07/03 11:49:29;;;;;;;3.67;3.20;;;26.00;82.60;;;;;;11826349;28;20062;-55
2021/07/03 11:55:19;;;;;;;4.43;3.30;;;25.90;88.30;;;;;;11727883;28;20059;-57
2021/07/03 12:01:07;;;;;;;4.53;3.15;;;26.20;85.40;;;;;;11802846;28;20089;-54
2021/07/03 12:13:40;;;;;;;6.15;3.65;;;26.30;86.30;;;;;;11825095;28;20062;-56
2021/07/03 12:19:27;;;;;;;4.55;3.25;;;26.60;85.50;;;;;;11829941;28;20047;-60
2021/07/03 12:25:15;;;;;;;4.97;3.40;;;26.50;82.00;;;;;;11827411;28;20053;-58
2021/07/03 12:31:09;;;;;;;4.82;3.83;;;26.40;82.90;;;;;;11827747;28;20046;-58
2021/07/03 12:37:04;;;;;;;4.18;3.50;;;26.40;83.60;;;;;;11827751;28;20058;-59
2021/07/03 12:42:59;;;;;;;4.30;3.90;;;26.60;84.70;;;;;;11827512;28;20079;-59
2021/07/03 12:48:47;;;;;;;6.38;4.07;;;26.50;83.30;;;;;;11827220;28;20057;-58
2021/07/03 12:54:34;;;;;;;8.27;4.18;;;26.50;85.50;;;;;;11850017;28;20046;-58
2021/07/03 13:00:22;;;;;;;7.07;3.92;;;26.50;86.60;;;;;;11842459;28;20466;-65
2021/07/03 13:06:10;;;;;;;8.02;4.43;;;26.50;84.80;;;;;;11814920;28;20054;-66
2021/07/03 13:11:57;;;;;;;6.38;4.07;;;26.40;86.20;;;;;;11799418;28;20621;-64
2021/07/03 13:17:45;;;;;;;5.15;4.30;;;26.30;88.80;;;;;;11863252;28;20415;-64
2021/07/03 13:23:34;;;;;;;5.30;4.28;;;26.50;88.80;;;;;;11857851;28;20526;-62
2021/07/03 13:29:21;;;;;;;5.93;4.32;;;26.30;89.20;;;;;;11863403;28;20529;-60
2021/07/03 13:35:09;;;;;;;7.60;3.90;;;26.10;89.20;;;;;;11826719;28;20039;-59
2021/07/03 13:41:13;;;;;;;5.90;3.60;;;26.20;90.00;;;;;;11843614;28;20505;-60
2021/07/03 13:46:59;;;;;;;5.55;4.40;;;26.40;90.10;;;;;;11839685;28;20088;-60
2021/07/03 13:52:46;;;;;;;4.32;2.47;;;27.20;88.70;;;;;;11827107;28;20054;-59
2021/07/03 13:58:35;;;;;;;3.20;2.70;;;27.20;85.70;;;;;;11813514;28;20050;-63
2021/07/03 14:04:22;;;;;;;6.88;2.95;;;27.20;86.70;;;;;;11865772;28;20056;-61
2021/07/03 14:10:10;;;;;;;4.25;2.75;;;27.20;86.00;;;;;;11872661;28;20045;-68
2021/07/03 14:15:58;;;;;;;2.75;2.50;;;27.40;85.80;;;;;;11860232;28;20042;-61
2021/07/03 14:21:46;;;;;;;3.67;2.42;;;27.50;84.60;;;;;;11861100;28;20391;-61
2021/07/03 14:27:33;;;;;;;2.90;2.47;;;27.60;86.40;;;;;;11859795;28;20061;-61
2021/07/03 14:33:21;;;;;;;3.13;2.25;;;28.00;85.60;;;;;;11876771;28;20046;-61
2021/07/03 14:39:09;;;;;;;4.28;2.80;;;28.40;85.40;;;;;;11869704;28;20747;-61
2021/07/03 14:44:56;;;;;;;3.10;2.70;;;28.40;84.30;;;;;;11865276;28;20596;-61
2021/07/03 14:50:45;;;;;;;3.05;2.65;;;28.30;84.60;;;;;;11839218;28;20058;-61
2021/07/03 14:56:31;;;;;;;3.55;2.60;;;27.70;85.20;;;;;;11773787;28;20538;-61
2021/07/03 15:02:21;;;;;;;2.47;1.90;;;27.30;87.80;;;;;;11789129;28;20054;-61
2021/07/03 15:08:09;;;;;;;2.17;1.98;;;27.00;88.20;;;;;;11809880;28;20055;-61
2021/07/03 15:13:56;;;;;;;2.28;1.70;;;27.20;88.50;;;;;;11803892;28;20062;-61
2021/07/03 15:19:42;;;;;;;1.83;1.70;;;27.20;88.60;;;;;;11798495;28;20058;-61
2021/07/03 15:25:31;;;;;;;4.93;1.90;;;27.30;88.90;;;;;;11801599;28;20046;-61
2021/07/03 15:31:18;;;;;;;2.13;1.92;;;27.70;87.70;;;;;;11801685;28;20074;-59
2021/07/03 15:37:05;;;;;;;2.90;2.40;;;27.60;85.30;;;;;;11799684;28;20058;-61
2021/07/03 15:42:53;;;;;;;2.85;2.50;;;27.30;87.00;;;;;;11800889;28;20058;-60
2021/07/03 15:48:41;;;;;;;2.78;2.55;;;26.80;89.60;;;;;;11799793;28;20050;-61
2021/07/03 15:54:28;;;;;;;2.83;2.63;;;26.20;91.00;;;;;;11845499;28;20046;-61
2021/07/03 16:00:18;;;;;;;4.88;3.10;;;26.10;91.10;;;;;;11844823;28;20042;-61
2021/07/03 16:06:05;;;;;;;2.90;2.60;;;26.20;91.90;;;;;;11834622;28;20059;-61
2021/07/03 16:11:52;;;;;;;3.40;2.70;;;26.50;91.90;;;;;;11799972;28;20047;-61
2021/07/03 16:17:40;;;;;;;3.65;3.15;;;27.00;90.20;;;;;;11791395;28;20062;-61
2021/07/03 16:23:27;;;;;;;4.07;3.13;;;26.90;90.40;;;;;;11826297;28;20046;-60
2021/07/03 16:29:14;;;;;;;3.80;2.95;;;26.60;90.80;;;;;;11842651;28;20054;-61
2021/07/03 16:35:03;;;;;;;4.28;2.70;;;26.60;91.50;;;;;;11842023;28;20065;-61
2021/07/03 16:40:51;;;;;;;3.65;2.75;;;26.90;91.30;;;;;;11841801;28;20577;-61
2021/07/03 16:46:37;;;;;;;5.75;2.88;;;27.80;89.50;;;;;;11839060;28;20054;-61
2021/07/03 16:52:26;;;;;;;2.67;2.47;;;28.80;84.90;;;;;;11840718;28;20141;-61
2021/07/03 16:58:13;;;;;;;2.55;2.35;;;30.10;79.20;;;;;;11865561;28;20046;-61
2021/07/03 17:04:02;;;;;;;2.95;2.40;;;31.80;73.90;;;;;;11859760;28;20049;-60
2021/07/03 17:09:52;;;;;;;4.88;2.40;;;33.00;68.70;;;;;;11855403;28;20414;-61
2021/07/03 17:15:39;;;;;;;5.05;2.08;;;34.40;64.70;;;;;;11815231;28;20054;-61
2021/07/03 17:21:25;;;;;;;2.45;2.10;;;34.30;61.40;;;;;;11861037;28;20042;-61
2021/07/03 17:27:14;;;;;;;2.70;2.17;;;34.40;60.30;;;;;;11863394;28;20061;-62
2021/07/03 17:33:01;;;;;;;2.13;1.98;;;34.30;60.20;;;;;;11872879;28;20054;-61
2021/07/03 17:38:48;;;;;;;2.95;2.20;;;34.10;60.00;;;;;;11868269;28;20061;-61
2021/07/03 17:44:36;;;;;;;2.30;1.92;;;34.80;59.60;;;;;;11863922;28;20085;-61
2021/07/03 17:50:23;;;;;;;1.98;1.70;;;35.10;58.00;;;;;;11870473;28;20038;-61
2021/07/03 17:56:10;;;;;;;2.83;1.98;;;36.40;55.90;;;;;;11863236;28;20065;-60
2021/07/03 18:01:59;;;;;;;7.07;2.08;;;37.70;51.70;;;;;;11859178;28;20046;-60
2021/07/03 18:07:46;;;;;;;3.40;2.13;;;36.80;53.10;;;;;;11852428;28;20049;-61
2021/07/03 18:13:32;;;;;;;4.25;1.80;;;34.30;56.50;;;;;;11863727;28;20054;-61
2021/07/03 18:19:21;;;;;;;2.30;2.10;;;32.80;60.60;;;;;;11856913;28;20051;-61
2021/07/03 18:25:30;;;;;;;8.18;2.30;;;34.10;57.50;;;;;;11886588;28;20046;-60
2021/07/03 18:31:17;;;;;;;4.50;2.40;;;33.10;59.00;;;;;;11894014;28;20467;-57
2021/07/03 18:37:05;;;;;;;2.30;2.10;;;31.30;64.90;;;;;;11901862;28;20037;-56
2021/07/03 18:42:52;;;;;;;2.90;2.60;;;30.30;67.70;;;;;;11897356;28;20538;-66
2021/07/03 18:48:39;;;;;;;4.53;2.60;;;29.80;69.00;;;;;;11901091;28;20045;-58
2021/07/03 18:54:28;;;;;;;2.60;2.38;;;29.50;70.90;;;;;;11812647;28;20051;-58
2021/07/03 19:00:17;;;;;;;5.55;2.80;;;29.50;72.70;;;;;;11797649;28;20057;-70
2021/07/03 19:06:04;;;;;;;7.22;4.55;;;30.90;68.30;;;;;;11803080;28;20147;-60
2021/07/03 19:11:53;;;;;;;4.30;2.72;;;30.20;72.50;;;;;;11769149;28;20455;-63
2021/07/03 19:17:40;;;;;;;8.07;2.40;;;29.60;74.50;;;;;;11766745;28;20058;-63
2021/07/03 19:23:27;;;;;;;4.22;2.70;;;28.60;78.00;;;;;;11762640;28;20562;-62
2021/07/03 19:29:16;;;;;;;3.00;2.40;;;27.90;80.80;;;;;;11823980;28;20053;-61
2021/07/03 19:35:05;;;;;;;10.57;5.82;;;27.30;83.10;;;;;;11830282;28;20054;-63
2021/07/03 19:40:53;;;;;;;4.32;3.08;;;26.80;85.30;;;;;;11827311;28;20457;-62
2021/07/03 19:46:41;;;;;;;14.73;3.80;;;26.50;87.10;;;;;;11773161;28;20050;-61
2021/07/03 19:52:28;;;;;;;7.63;3.95;;;26.30;90.50;;;;;;11896966;28;20528;-62
2021/07/03 19:58:15;;;;;;;6.82;4.60;;;26.20;93.50;;;;;;11914134;28;20049;-62
2021/07/03 20:04:03;;;;;;;5.45;4.60;;;25.90;92.90;;;;;;11899482;28;20066;-62
2021/07/03 20:09:50;;;;;;;6.82;3.90;;;25.80;94.50;;;;;;11850609;28;20043;-62
2021/07/03 20:15:37;;;;;;;7.50;3.90;;;25.60;96.00;;;;;;11853970;28;20685;-62
2021/07/03 20:21:26;;;;;;;6.10;4.80;;;25.40;97.20;;;;;;11860327;28;20054;-62
2021/07/03 20:27:14;;;;;;;9.15;4.30;;;25.10;98.30;;;;;;11843114;28;20047;-62
2021/07/03 20:33:02;;;;;;;8.75;4.60;;;25.00;99.90;;;;;;11806609;28;20533;-62
2021/07/03 20:38:50;;;;;;;7.30;4.93;;;24.90;99.90;;;;;;11801883;28;20063;-63
2021/07/03 20:44:38;;;;;;;7.88;4.82;;;24.90;99.90;;;;;;11808196;28;20073;-63
2021/07/03 20:50:25;;;;;;;8.38;4.38;;;24.90;99.90;;;;;;11834445;28;20396;-63
2021/07/03 20:56:14;;;;;;;6.85;3.83;;;24.80;99.90;;;;;;11833871;28;20057;-63
2021/07/03 21:02:01;;;;;;;6.15;3.58;;;24.70;99.90;;;;;;11863689;28;20050;-63
2021/07/03 21:07:49;;;;;;;4.43;3.30;;;24.50;99.90;;;;;;11848567;28;20050;-62
2021/07/03 21:13:37;;;;;;;6.32;3.83;;;24.50;99.90;;;;;;11864524;28;20541;-62
2021/07/03 21:19:24;;;;;;;6.55;3.95;;;24.50;99.90;;;;;;11871114;28;20053;-62
2021/07/03 21:25:13;;;;;;;6.57;3.80;;;24.40;99.90;;;;;;11893807;28;20193;-62
2021/07/03 21:31:01;;;;;;;5.10;3.75;;;24.30;99.90;;;;;;11893439;28;20507;-62
2021/07/03 21:36:48;;;;;;;6.53;3.42;;;24.20;99.90;;;;;;11895273;28;20062;-63
2021/07/03 21:42:35;;;;;;;9.20;4.40;;;24.20;99.90;;;;;;11891043;28;20050;-61
2021/07/03 21:48:23;;;;;;;4.78;3.60;;;24.20;99.90;;;;;;11896301;28;20053;-61
2021/07/03 21:54:10;;;;;;;6.13;3.20;;;24.10;99.90;;;;;;11891416;28;20061;-62
2021/07/03 21:59:57;;;;;;;6.60;3.67;;;24.00;99.90;;;;;;11894531;28;20042;-60
2021/07/03 22:05:48;;;;;;;4.65;3.42;;;24.00;99.90;;;;;;11876932;28;20041;-61
2021/07/03 22:11:35;;;;;;;8.35;3.75;;;23.90;99.90;;;;;;11867956;28;20061;-60
2021/07/03 22:17:22;;;;;;;8.68;3.83;;;23.90;99.90;;;;;;11866570;28;20053;-60
2021/07/03 22:23:10;;;;;;;6.28;3.55;;;23.80;99.90;;;;;;11863371;28;20057;-61
2021/07/03 22:28:57;;;;;;;6.15;4.20;;;23.70;99.90;;;;;;11859165;28;20356;-60
2021/07/03 22:34:44;;;;;;;10.23;3.80;;;23.70;99.90;;;;;;11857455;28;20047;-60
